sensor_id;sensor_type;location;lat;lon;timestamp;P1;durP1;ratioP1;P2;durP2;ratioP2
6374;SDS011;35400;45.472;-122.822;2024-01-15T00:00:11;3.97;;;3.07;;
6374;SDS011;35400;45.472;-122.822;2024-01-15T00:02:38;3.37;;;3.07;;
6374;SDS011;35400;45.472;-122.822;2024-01-15T00:05:05;5.20;;;3.50;;
6374;SDS011;35400;45.472;-122.822;2024-01-15T00:07:32;4.67;;;3.47;;
6374;SDS011;35400;45.472;-122.822;2024-01-15T00:09:59;4.43;;;3.23;;
6374;SDS011;35400;45.472;-122.822;2024-01-15T00:12:26;5.60;;;3.40;;
6374;SDS011;35400;45.472;-122.822;2024-01-15T00:14:53;9.07;;;4.63;;
6374;SDS011;35400;45.472;-122.822;2024-01-15T00:17:20;7.10;;;5.47;;
6374;SDS011;35400;45.472;-122.822;2024-01-15T00:19:46;6.23;;;5.43;;
6374;SDS011;35400;45.472;-122.822;2024-01-15T00:22:13;18.73;;;9.70;;
6374;SDS011;35400;45.472;-122.822;2024-01-15T00:24:40;17.23;;;11.20;;
6374;SDS011;35400;45.472;-122.822;2024-01-15T00:27:07;6.93;;;4.63;;
6374;SDS011;35400;45.472;-122.822;2024-01-15T00:29:34;5.00;;;3.63;;
6374;SDS011;35400;45.472;-122.822;2024-01-15T00:32:01;10.13;;;7.10;;
6374;SDS011;35400;45.472;-122.822;2024-01-15T00:34:28;5.27;;;3.90;;
6374;SDS011;35400;45.472;-122.822;2024-01-15T00:36:54;6.97;;;4.13;;
6374;SDS011;35400;45.472;-122.822;2024-01-15T00:39:21;4.87;;;3.37;;
6374;SDS011;35400;45.472;-122.822;2024-01-15T00:41:48;5.33;;;4.03;;
6374;SDS011;35400;45.472;-122.822;2024-01-15T00:44:15;4.90;;;3.57;;
6374;SDS011;35400;45.472;-122.822;2024-01-15T00:46:45;6.20;;;4.70;;
6374;SDS011;35400;45.472;-122.822;2024-01-15T00:49:13;4.73;;;3.83;;
6374;SDS011;35400;45.472;-122.822;2024-01-15T00:51:39;4.30;;;3.13;;
6374;SDS011;35400;45.472;-122.822;2024-01-15T00:54:06;4.13;;;3.40;;
6374;SDS011;35400;45.472;-122.822;2024-01-15T00:56:33;4.53;;;3.30;;
6374;SDS011;35400;45.472;-122.822;2024-01-15T00:59:00;4.20;;;2.90;;
6374;SDS011;35400;45.472;-122.822;2024-01-15T01:01:27;3.17;;;2.67;;
6374;SDS011;35400;45.472;-122.822;2024-01-15T01:03:55;2.90;;;2.60;;
6374;SDS011;35400;45.472;-122.822;2024-01-15T01:06:22;4.00;;;2.77;;
6374;SDS011;35400;45.472;-122.822;2024-01-15T01:08:49;3.53;;;2.63;;
6374;SDS011;35400;45.472;-122.822;2024-01-15T01:11:16;3.73;;;3.23;;
6374;SDS011;35400;45.472;-122.822;2024-01-15T01:13:43;5.37;;;3.00;;
6374;SDS011;35400;45.472;-122.822;2024-01-15T01:16:10;4.40;;;2.90;;
6374;SDS011;35400;45.472;-122.822;2024-01-15T01:18:36;3.20;;;2.40;;
6374;SDS011;35400;45.472;-122.822;2024-01-15T01:21:03;4.33;;;3.27;;
6374;SDS011;35400;45.472;-122.822;2024-01-15T01:23:30;5.23;;;3.60;;
6374;SDS011;35400;45.472;-122.822;2024-01-15T01:25:57;4.33;;;2.60;;
6374;SDS011;35400;45.472;-122.822;2024-01-15T01:28:24;6.27;;;5.50;;
6374;SDS011;35400;45.472;-122.822;2024-01-15T01:30:51;4.87;;;2.50;;
6374;SDS011;35400;45.472;-122.822;2024-01-15T01:33:18;4.40;;;3.60;;
6374;SDS011;35400;45.472;-122.822;2024-01-15T01:35:44;4.53;;;3.30;;
6374;SDS011;35400;45.472;-122.822;2024-01-15T01:38:12;4.20;;;2.70;;
6374;SDS011;35400;45.472;-122.822;2024-01-15T01:40:39;9.20;;;7.23;;
6374;SDS011;35400;45.472;-122.822;2024-01-15T01:43:06;4.90;;;3.20;;
6374;SDS011;35400;45.472;-122.822;2024-01-15T01:45:34;4.20;;;2.73;;
6374;SDS011;35400;45.472;-122.822;2024-01-15T01:48:01;3.13;;;2.83;;
6374;SDS011;35400;45.472;-122.822;2024-01-15T01:50:29;3.10;;;2.60;;
6374;SDS011;35400;45.472;-122.822;2024-01-15T01:52:57;4.80;;;3.20;;
6374;SDS011;35400;45.472;-122.822;2024-01-15T01:55:25;5.20;;;3.30;;
6374;SDS011;35400;45.472;-122.822;2024-01-15T01:57:54;3.80;;;2.77;;
6374;SDS011;35400;45.472;-122.822;2024-01-15T02:00:21;3.40;;;3.00;;
6374;SDS011;35400;45.472;-122.822;2024-01-15T02:02:49;5.03;;;3.80;;
6374;SDS011;35400;45.472;-122.822;2024-01-15T02:05:18;5.87;;;3.30;;
6374;SDS011;35400;45.472;-122.822;2024-01-15T02:07:47;3.57;;;3.20;;
6374;SDS011;35400;45.472;-122.822;2024-01-15T02:10:14;5.03;;;3.67;;
6374;SDS011;35400;45.472;-122.822;2024-01-15T02:12:42;4.77;;;3.40;;
6374;SDS011;35400;45.472;-122.822;2024-01-15T02:15:09;4.40;;;3.17;;
6374;SDS011;35400;45.472;-122.822;2024-01-15T02:17:55;4.47;;;2.90;;
6374;SDS011;35400;45.472;-122.822;2024-01-15T02:20:24;3.80;;;3.17;;
6374;SDS011;35400;45.472;-122.822;2024-01-15T02:22:51;6.80;;;3.40;;
6374;SDS011;35400;45.472;-122.822;2024-01-15T02:25:19;5.77;;;3.37;;
6374;SDS011;35400;45.472;-122.822;2024-01-15T02:27:47;5.50;;;3.57;;
6374;SDS011;35400;45.472;-122.822;2024-01-15T02:30:14;4.40;;;3.37;;
6374;SDS011;35400;45.472;-122.822;2024-01-15T02:32:41;5.27;;;3.47;;
6374;SDS011;35400;45.472;-122.822;2024-01-15T02:35:08;5.07;;;3.43;;
6374;SDS011;35400;45.472;-122.822;2024-01-15T02:37:35;5.90;;;3.37;;
6374;SDS011;35400;45.472;-122.822;2024-01-15T02:40:03;4.53;;;3.33;;
6374;SDS011;35400;45.472;-122.822;2024-01-15T02:42:30;3.43;;;2.87;;
6374;SDS011;35400;45.472;-122.822;2024-01-15T02:44:56;4.40;;;3.30;;
6374;SDS011;35400;45.472;-122.822;2024-01-15T02:47:23;4.37;;;3.00;;
6374;SDS011;35400;45.472;-122.822;2024-01-15T02:49:50;3.50;;;2.70;;
6374;SDS011;35400;45.472;-122.822;2024-01-15T02:52:17;5.33;;;3.53;;
6374;SDS011;35400;45.472;-122.822;2024-01-15T02:54:44;4.07;;;3.27;;
6374;SDS011;35400;45.472;-122.822;2024-01-15T02:57:11;4.30;;;3.17;;
6374;SDS011;35400;45.472;-122.822;2024-01-15T02:59:38;3.47;;;3.00;;
6374;SDS011;35400;45.472;-122.822;2024-01-15T03:02:04;4.00;;;2.67;;
6374;SDS011;35400;45.472;-122.822;2024-01-15T03:04:31;5.90;;;3.53;;
6374;SDS011;35400;45.472;-122.822;2024-01-15T03:06:58;5.20;;;3.00;;
6374;SDS011;35400;45.472;-122.822;2024-01-15T03:09:25;5.87;;;3.47;;
6374;SDS011;35400;45.472;-122.822;2024-01-15T03:11:52;3.60;;;2.80;;
6374;SDS011;35400;45.472;-122.822;2024-01-15T03:14:19;4.83;;;3.97;;
6374;SDS011;35400;45.472;-122.822;2024-01-15T03:16:46;6.07;;;3.40;;
6374;SDS011;35400;45.472;-122.822;2024-01-15T03:19:13;4.90;;;3.80;;
6374;SDS011;35400;45.472;-122.822;2024-01-15T03:21:39;7.17;;;3.53;;
6374;SDS011;35400;45.472;-122.822;2024-01-15T03:24:06;5.53;;;4.00;;
6374;SDS011;35400;45.472;-122.822;2024-01-15T03:26:33;5.50;;;3.10;;
6374;SDS011;35400;45.472;-122.822;2024-01-15T03:29:00;4.53;;;3.20;;
6374;SDS011;35400;45.472;-122.822;2024-01-15T03:31:27;5.83;;;3.47;;
6374;SDS011;35400;45.472;-122.822;2024-01-15T03:33:54;5.80;;;3.60;;
6374;SDS011;35400;45.472;-122.822;2024-01-15T03:36:21;5.53;;;3.43;;
6374;SDS011;35400;45.472;-122.822;2024-01-15T03:38:48;5.73;;;3.83;;
6374;SDS011;35400;45.472;-122.822;2024-01-15T03:41:14;4.50;;;3.70;;
6374;SDS011;35400;45.472;-122.822;2024-01-15T03:43:41;7.57;;;4.83;;
6374;SDS011;35400;45.472;-122.822;2024-01-15T03:46:08;5.37;;;3.97;;
6374;SDS011;35400;45.472;-122.822;2024-01-15T03:48:35;4.37;;;3.30;;
6374;SDS011;35400;45.472;-122.822;2024-01-15T03:51:02;5.37;;;3.37;;
6374;SDS011;35400;45.472;-122.822;2024-01-15T03:53:30;4.10;;;2.80;;
6374;SDS011;35400;45.472;-122.822;2024-01-15T03:55:57;6.23;;;4.00;;
6374;SDS011;35400;45.472;-122.822;2024-01-15T03:58:23;5.93;;;4.03;;
6374;SDS011;35400;45.472;-122.822;2024-01-15T04:00:50;6.33;;;3.10;;
6374;SDS011;35400;45.472;-122.822;2024-01-15T04:03:17;7.40;;;3.73;;
6374;SDS011;35400;45.472;-122.822;2024-01-15T04:05:44;5.23;;;3.67;;
6374;SDS011;35400;45.472;-122.822;2024-01-15T04:08:11;6.00;;;3.77;;
6374;SDS011;35400;45.472;-122.822;2024-01-15T04:10:38;6.00;;;4.13;;
6374;SDS011;35400;45.472;-122.822;2024-01-15T04:13:04;5.80;;;3.93;;
6374;SDS011;35400;45.472;-122.822;2024-01-15T04:15:31;11.37;;;7.37;;
6374;SDS011;35400;45.472;-122.822;2024-01-15T04:17:58;4.73;;;3.77;;
6374;SDS011;35400;45.472;-122.822;2024-01-15T04:20:26;5.40;;;3.30;;
6374;SDS011;35400;45.472;-122.822;2024-01-15T04:22:53;3.90;;;3.37;;
6374;SDS011;35400;45.472;-122.822;2024-01-15T04:25:20;5.00;;;3.43;;
6374;SDS011;35400;45.472;-122.822;2024-01-15T04:27:47;4.43;;;3.43;;
6374;SDS011;35400;45.472;-122.822;2024-01-15T04:30:14;7.27;;;3.70;;
6374;SDS011;35400;45.472;-122.822;2024-01-15T04:32:41;5.57;;;3.40;;
6374;SDS011;35400;45.472;-122.822;2024-01-15T04:35:08;4.80;;;3.77;;
6374;SDS011;35400;45.472;-122.822;2024-01-15T04:37:34;5.87;;;3.83;;
6374;SDS011;35400;45.472;-122.822;2024-01-15T04:40:02;4.50;;;3.77;;
6374;SDS011;35400;45.472;-122.822;2024-01-15T04:42:29;5.53;;;4.07;;
6374;SDS011;35400;45.472;-122.822;2024-01-15T04:44:56;4.03;;;3.37;;
6374;SDS011;35400;45.472;-122.822;2024-01-15T04:47:23;5.67;;;3.57;;
6374;SDS011;35400;45.472;-122.822;2024-01-15T04:49:50;9.83;;;6.07;;
6374;SDS011;35400;45.472;-122.822;2024-01-15T04:52:17;3.83;;;3.47;;
6374;SDS011;35400;45.472;-122.822;2024-01-15T04:54:44;7.50;;;4.07;;
6374;SDS011;35400;45.472;-122.822;2024-01-15T04:57:11;6.13;;;4.03;;
6374;SDS011;35400;45.472;-122.822;2024-01-15T04:59:37;7.27;;;4.83;;
6374;SDS011;35400;45.472;-122.822;2024-01-15T05:02:05;4.63;;;3.63;;
6374;SDS011;35400;45.472;-122.822;2024-01-15T05:04:32;5.47;;;3.50;;
6374;SDS011;35400;45.472;-122.822;2024-01-15T05:06:59;5.03;;;3.97;;
6374;SDS011;35400;45.472;-122.822;2024-01-15T05:09:26;6.47;;;3.60;;
6374;SDS011;35400;45.472;-122.822;2024-01-15T05:11:54;4.60;;;3.13;;
6374;SDS011;35400;45.472;-122.822;2024-01-15T05:14:21;5.13;;;3.17;;
6374;SDS011;35400;45.472;-122.822;2024-01-15T05:16:48;3.50;;;2.77;;
6374;SDS011;35400;45.472;-122.822;2024-01-15T05:19:16;4.67;;;3.33;;
6374;SDS011;35400;45.472;-122.822;2024-01-15T05:21:47;3.10;;;2.80;;
6374;SDS011;35400;45.472;-122.822;2024-01-15T05:24:13;5.63;;;3.73;;
6374;SDS011;35400;45.472;-122.822;2024-01-15T05:26:40;6.20;;;3.07;;
6374;SDS011;35400;45.472;-122.822;2024-01-15T05:29:07;5.80;;;3.60;;
6374;SDS011;35400;45.472;-122.822;2024-01-15T05:31:35;6.30;;;4.17;;
6374;SDS011;35400;45.472;-122.822;2024-01-15T05:34:02;6.23;;;3.33;;
6374;SDS011;35400;45.472;-122.822;2024-01-15T05:36:29;5.80;;;3.57;;
6374;SDS011;35400;45.472;-122.822;2024-01-15T05:38:55;3.87;;;2.77;;
6374;SDS011;35400;45.472;-122.822;2024-01-15T05:41:22;21.47;;;11.50;;
6374;SDS011;35400;45.472;-122.822;2024-01-15T05:43:49;5.60;;;3.83;;
6374;SDS011;35400;45.472;-122.822;2024-01-15T05:46:16;5.17;;;3.33;;
6374;SDS011;35400;45.472;-122.822;2024-01-15T05:48:43;4.80;;;3.50;;
6374;SDS011;35400;45.472;-122.822;2024-01-15T05:51:10;4.43;;;3.27;;
6374;SDS011;35400;45.472;-122.822;2024-01-15T05:53:36;5.53;;;3.20;;
6374;SDS011;35400;45.472;-122.822;2024-01-15T05:56:06;4.23;;;3.60;;
6374;SDS011;35400;45.472;-122.822;2024-01-15T05:58:32;4.17;;;3.30;;
6374;SDS011;35400;45.472;-122.822;2024-01-15T06:00:59;6.33;;;4.63;;
6374;SDS011;35400;45.472;-122.822;2024-01-15T06:03:26;4.93;;;4.17;;
6374;SDS011;35400;45.472;-122.822;2024-01-15T06:05:53;5.97;;;3.83;;
6374;SDS011;35400;45.472;-122.822;2024-01-15T06:08:20;3.73;;;2.97;;
6374;SDS011;35400;45.472;-122.822;2024-01-15T06:10:47;3.47;;;2.70;;
6374;SDS011;35400;45.472;-122.822;2024-01-15T06:13:14;3.43;;;2.60;;
6374;SDS011;35400;45.472;-122.822;2024-01-15T06:15:40;3.93;;;2.60;;
6374;SDS011;35400;45.472;-122.822;2024-01-15T06:18:07;7.37;;;3.40;;
6374;SDS011;35400;45.472;-122.822;2024-01-15T06:20:34;4.43;;;3.07;;
6374;SDS011;35400;45.472;-122.822;2024-01-15T06:23:01;4.10;;;2.87;;
6374;SDS011;35400;45.472;-122.822;2024-01-15T06:25:28;4.57;;;3.13;;
6374;SDS011;35400;45.472;-122.822;2024-01-15T06:27:54;5.50;;;3.33;;
6374;SDS011;35400;45.472;-122.822;2024-01-15T06:30:21;5.43;;;2.83;;
6374;SDS011;35400;45.472;-122.822;2024-01-15T06:32:48;2.73;;;2.20;;
6374;SDS011;35400;45.472;-122.822;2024-01-15T06:35:16;4.23;;;2.90;;
6374;SDS011;35400;45.472;-122.822;2024-01-15T06:37:42;4.80;;;2.40;;
6374;SDS011;35400;45.472;-122.822;2024-01-15T06:40:09;4.10;;;3.27;;
6374;SDS011;35400;45.472;-122.822;2024-01-15T06:42:36;3.33;;;2.60;;
6374;SDS011;35400;45.472;-122.822;2024-01-15T06:45:03;3.57;;;2.40;;
6374;SDS011;35400;45.472;-122.822;2024-01-15T06:47:30;5.10;;;3.00;;
6374;SDS011;35400;45.472;-122.822;2024-01-15T06:49:58;4.07;;;2.47;;
6374;SDS011;35400;45.472;-122.822;2024-01-15T06:52:25;4.47;;;3.20;;
6374;SDS011;35400;45.472;-122.822;2024-01-15T06:54:51;3.13;;;2.47;;
6374;SDS011;35400;45.472;-122.822;2024-01-15T06:57:18;4.43;;;3.13;;
6374;SDS011;35400;45.472;-122.822;2024-01-15T06:59:46;4.03;;;2.57;;
6374;SDS011;35400;45.472;-122.822;2024-01-15T07:02:13;3.70;;;3.10;;
6374;SDS011;35400;45.472;-122.822;2024-01-15T07:04:39;4.47;;;2.70;;
6374;SDS011;35400;45.472;-122.822;2024-01-15T07:07:06;3.70;;;2.40;;
6374;SDS011;35400;45.472;-122.822;2024-01-15T07:09:33;3.50;;;2.53;;
6374;SDS011;35400;45.472;-122.822;2024-01-15T07:12:00;4.27;;;2.63;;
6374;SDS011;35400;45.472;-122.822;2024-01-15T07:14:27;4.23;;;2.47;;
6374;SDS011;35400;45.472;-122.822;2024-01-15T07:16:54;3.70;;;2.20;;
6374;SDS011;35400;45.472;-122.822;2024-01-15T07:19:20;3.63;;;2.47;;
6374;SDS011;35400;45.472;-122.822;2024-01-15T07:21:47;4.10;;;2.33;;
6374;SDS011;35400;45.472;-122.822;2024-01-15T07:24:14;3.87;;;2.67;;
6374;SDS011;35400;45.472;-122.822;2024-01-15T07:26:41;4.73;;;2.17;;
6374;SDS011;35400;45.472;-122.822;2024-01-15T07:29:08;2.63;;;2.30;;
6374;SDS011;35400;45.472;-122.822;2024-01-15T07:31:35;3.63;;;2.50;;
6374;SDS011;35400;45.472;-122.822;2024-01-15T07:34:01;3.20;;;2.50;;
6374;SDS011;35400;45.472;-122.822;2024-01-15T07:36:28;3.07;;;2.70;;
6374;SDS011;35400;45.472;-122.822;2024-01-15T07:38:55;5.00;;;2.47;;
6374;SDS011;35400;45.472;-122.822;2024-01-15T07:41:22;2.47;;;1.90;;
6374;SDS011;35400;45.472;-122.822;2024-01-15T07:43:49;4.03;;;2.70;;
6374;SDS011;35400;45.472;-122.822;2024-01-15T07:46:15;4.40;;;2.57;;
6374;SDS011;35400;45.472;-122.822;2024-01-15T07:48:42;2.90;;;1.63;;
6374;SDS011;35400;45.472;-122.822;2024-01-15T07:51:09;3.03;;;2.37;;
6374;SDS011;35400;45.472;-122.822;2024-01-15T07:53:36;3.83;;;2.03;;
6374;SDS011;35400;45.472;-122.822;2024-01-15T07:56:03;11.77;;;2.73;;
6374;SDS011;35400;45.472;-122.822;2024-01-15T07:58:30;2.63;;;2.03;;
6374;SDS011;35400;45.472;-122.822;2024-01-15T08:00:57;3.03;;;2.30;;
6374;SDS011;35400;45.472;-122.822;2024-01-15T08:03:23;4.03;;;2.40;;
6374;SDS011;35400;45.472;-122.822;2024-01-15T08:05:50;3.43;;;2.30;;
6374;SDS011;35400;45.472;-122.822;2024-01-15T08:08:19;5.20;;;2.33;;
6374;SDS011;35400;45.472;-122.822;2024-01-15T08:10:49;1.93;;;1.67;;
6374;SDS011;35400;45.472;-122.822;2024-01-15T08:13:16;1.87;;;1.67;;
6374;SDS011;35400;45.472;-122.822;2024-01-15T08:15:43;2.27;;;2.00;;
6374;SDS011;35400;45.472;-122.822;2024-01-15T08:18:10;4.13;;;2.20;;
6374;SDS011;35400;45.472;-122.822;2024-01-15T08:20:36;4.33;;;3.00;;
6374;SDS011;35400;45.472;-122.822;2024-01-15T08:23:04;4.00;;;2.20;;
6374;SDS011;35400;45.472;-122.822;2024-01-15T08:25:30;3.33;;;2.30;;
6374;SDS011;35400;45.472;-122.822;2024-01-15T08:27:57;5.47;;;2.63;;
6374;SDS011;35400;45.472;-122.822;2024-01-15T08:30:24;2.93;;;2.30;;
6374;SDS011;35400;45.472;-122.822;2024-01-15T08:32:53;5.13;;;2.70;;
6374;SDS011;35400;45.472;-122.822;2024-01-15T08:35:21;4.03;;;2.03;;
6374;SDS011;35400;45.472;-122.822;2024-01-15T08:37:53;3.33;;;1.70;;
6374;SDS011;35400;45.472;-122.822;2024-01-15T08:40:20;2.67;;;1.80;;
6374;SDS011;35400;45.472;-122.822;2024-01-15T08:42:47;6.37;;;1.93;;
6374;SDS011;35400;45.472;-122.822;2024-01-15T08:45:14;2.63;;;1.80;;
6374;SDS011;35400;45.472;-122.822;2024-01-15T08:47:41;2.20;;;1.70;;
6374;SDS011;35400;45.472;-122.822;2024-01-15T08:50:09;3.70;;;1.40;;
6374;SDS011;35400;45.472;-122.822;2024-01-15T08:52:36;2.10;;;1.40;;
6374;SDS011;35400;45.472;-122.822;2024-01-15T08:55:03;3.73;;;1.80;;
6374;SDS011;35400;45.472;-122.822;2024-01-15T08:57:30;2.03;;;1.80;;
6374;SDS011;35400;45.472;-122.822;2024-01-15T08:59:57;1.60;;;1.43;;
6374;SDS011;35400;45.472;-122.822;2024-01-15T09:02:25;1.80;;;1.70;;
6374;SDS011;35400;45.472;-122.822;2024-01-15T09:04:52;2.73;;;1.40;;
6374;SDS011;35400;45.472;-122.822;2024-01-15T09:07:19;2.50;;;1.83;;
6374;SDS011;35400;45.472;-122.822;2024-01-15T09:09:45;1.70;;;1.33;;
6374;SDS011;35400;45.472;-122.822;2024-01-15T09:12:12;2.73;;;1.70;;
6374;SDS011;35400;45.472;-122.822;2024-01-15T09:14:41;2.10;;;1.60;;
6374;SDS011;35400;45.472;-122.822;2024-01-15T09:17:08;2.17;;;1.63;;
6374;SDS011;35400;45.472;-122.822;2024-01-15T09:19:34;1.77;;;1.50;;
6374;SDS011;35400;45.472;-122.822;2024-01-15T09:22:01;3.00;;;1.80;;
6374;SDS011;35400;45.472;-122.822;2024-01-15T09:24:28;1.87;;;1.60;;
6374;SDS011;35400;45.472;-122.822;2024-01-15T09:26:56;2.80;;;1.80;;
6374;SDS011;35400;45.472;-122.822;2024-01-15T09:29:22;2.50;;;1.90;;
6374;SDS011;35400;45.472;-122.822;2024-01-15T09:31:49;1.47;;;1.07;;
6374;SDS011;35400;45.472;-122.822;2024-01-15T09:34:17;1.60;;;1.50;;
6374;SDS011;35400;45.472;-122.822;2024-01-15T09:36:44;4.57;;;1.60;;
6374;SDS011;35400;45.472;-122.822;2024-01-15T09:39:11;2.10;;;1.30;;
6374;SDS011;35400;45.472;-122.822;2024-01-15T09:41:37;3.03;;;1.67;;
6374;SDS011;35400;45.472;-122.822;2024-01-15T09:44:05;2.00;;;1.50;;
6374;SDS011;35400;45.472;-122.822;2024-01-15T09:46:35;2.93;;;1.60;;
6374;SDS011;35400;45.472;-122.822;2024-01-15T09:49:02;2.30;;;1.47;;
6374;SDS011;35400;45.472;-122.822;2024-01-15T09:51:31;2.37;;;1.33;;
6374;SDS011;35400;45.472;-122.822;2024-01-15T09:53:58;1.20;;;1.10;;
6374;SDS011;35400;45.472;-122.822;2024-01-15T09:56:25;1.40;;;1.30;;
6374;SDS011;35400;45.472;-122.822;2024-01-15T09:58:52;2.67;;;1.30;;
6374;SDS011;35400;45.472;-122.822;2024-01-15T10:01:20;2.33;;;1.20;;
6374;SDS011;35400;45.472;-122.822;2024-01-15T10:03:48;2.07;;;1.00;;
6374;SDS011;35400;45.472;-122.822;2024-01-15T10:06:16;3.10;;;1.27;;
6374;SDS011;35400;45.472;-122.822;2024-01-15T10:08:47;1.40;;;1.30;;
6374;SDS011;35400;45.472;-122.822;2024-01-15T10:11:17;1.30;;;1.20;;
6374;SDS011;35400;45.472;-122.822;2024-01-15T10:13:44;1.87;;;1.20;;
6374;SDS011;35400;45.472;-122.822;2024-01-15T10:16:11;2.50;;;1.40;;
6374;SDS011;35400;45.472;-122.822;2024-01-15T10:18:38;2.67;;;1.37;;
6374;SDS011;35400;45.472;-122.822;2024-01-15T10:21:08;3.47;;;1.30;;
6374;SDS011;35400;45.472;-122.822;2024-01-15T10:23:35;1.83;;;1.50;;
6374;SDS011;35400;45.472;-122.822;2024-01-15T10:26:02;2.67;;;1.70;;
6374;SDS011;35400;45.472;-122.822;2024-01-15T10:28:29;1.80;;;1.13;;
6374;SDS011;35400;45.472;-122.822;2024-01-15T10:30:58;2.53;;;1.50;;
6374;SDS011;35400;45.472;-122.822;2024-01-15T10:33:25;2.10;;;1.30;;
6374;SDS011;35400;45.472;-122.822;2024-01-15T10:35:58;2.30;;;1.50;;
6374;SDS011;35400;45.472;-122.822;2024-01-15T10:38:26;1.60;;;1.50;;
6374;SDS011;35400;45.472;-122.822;2024-01-15T10:40:54;1.77;;;1.40;;
6374;SDS011;35400;45.472;-122.822;2024-01-15T10:43:22;2.30;;;1.33;;
6374;SDS011;35400;45.472;-122.822;2024-01-15T10:45:50;2.27;;;1.60;;
6374;SDS011;35400;45.472;-122.822;2024-01-15T10:48:18;1.57;;;1.20;;
6374;SDS011;35400;45.472;-122.822;2024-01-15T10:50:45;2.70;;;1.47;;
6374;SDS011;35400;45.472;-122.822;2024-01-15T10:53:14;2.20;;;1.33;;
6374;SDS011;35400;45.472;-122.822;2024-01-15T10:55:42;1.60;;;1.00;;
6374;SDS011;35400;45.472;-122.822;2024-01-15T10:58:10;1.37;;;1.27;;
6374;SDS011;35400;45.472;-122.822;2024-01-15T11:00:38;1.47;;;0.90;;
6374;SDS011;35400;45.472;-122.822;2024-01-15T11:03:05;1.63;;;1.30;;
6374;SDS011;35400;45.472;-122.822;2024-01-15T11:05:33;1.30;;;1.20;;
6374;SDS011;35400;45.472;-122.822;2024-01-15T11:08:19;1.80;;;1.17;;
6374;SDS011;35400;45.472;-122.822;2024-01-15T11:10:47;1.60;;;1.17;;
6374;SDS011;35400;45.472;-122.822;2024-01-15T11:14:00;1.23;;;1.13;;
6374;SDS011;35400;45.472;-122.822;2024-01-15T11:16:10;1.90;;;1.20;;
6374;SDS011;35400;45.472;-122.822;2024-01-15T11:18:41;1.80;;;1.13;;
6374;SDS011;35400;45.472;-122.822;2024-01-15T11:21:27;1.13;;;1.00;;
6374;SDS011;35400;45.472;-122.822;2024-01-15T11:23:59;1.83;;;1.20;;
6374;SDS011;35400;45.472;-122.822;2024-01-15T11:26:46;1.80;;;1.43;;
6374;SDS011;35400;45.472;-122.822;2024-01-15T11:29:29;1.30;;;1.20;;
6374;SDS011;35400;45.472;-122.822;2024-01-15T11:37:16;1.23;;;1.13;;
6374;SDS011;35400;45.472;-122.822;2024-01-15T11:39:43;3.27;;;1.30;;
6374;SDS011;35400;45.472;-122.822;2024-01-15T11:42:11;1.97;;;1.30;;
6374;SDS011;35400;45.472;-122.822;2024-01-15T11:44:39;1.53;;;1.00;;
6374;SDS011;35400;45.472;-122.822;2024-01-15T11:47:09;1.10;;;1.00;;
6374;SDS011;35400;45.472;-122.822;2024-01-15T11:52:32;1.30;;;1.07;;
6374;SDS011;35400;45.472;-122.822;2024-01-15T11:55:14;1.50;;;1.40;;
6374;SDS011;35400;45.472;-122.822;2024-01-15T11:57:54;1.43;;;1.20;;
6374;SDS011;35400;45.472;-122.822;2024-01-15T12:00:21;1.20;;;1.07;;
6374;SDS011;35400;45.472;-122.822;2024-01-15T12:02:49;2.47;;;1.50;;
6374;SDS011;35400;45.472;-122.822;2024-01-15T12:05:20;2.27;;;1.30;;
6374;SDS011;35400;45.472;-122.822;2024-01-15T12:07:48;1.67;;;1.27;;
6374;SDS011;35400;45.472;-122.822;2024-01-15T12:10:19;2.43;;;1.20;;
6374;SDS011;35400;45.472;-122.822;2024-01-15T12:13:00;1.93;;;1.20;;
6374;SDS011;35400;45.472;-122.822;2024-01-15T12:15:31;1.57;;;1.30;;
6374;SDS011;35400;45.472;-122.822;2024-01-15T12:17:59;1.23;;;1.13;;
6374;SDS011;35400;45.472;-122.822;2024-01-15T12:20:31;1.80;;;1.37;;
6374;SDS011;35400;45.472;-122.822;2024-01-15T12:22:59;1.43;;;1.33;;
6374;SDS011;35400;45.472;-122.822;2024-01-15T12:25:29;1.20;;;1.10;;
6374;SDS011;35400;45.472;-122.822;2024-01-15T12:27:59;1.43;;;1.33;;
6374;SDS011;35400;45.472;-122.822;2024-01-15T12:30:27;1.47;;;1.20;;
6374;SDS011;35400;45.472;-122.822;2024-01-15T12:32:55;1.30;;;1.20;;
6374;SDS011;35400;45.472;-122.822;2024-01-15T12:35:23;1.70;;;1.60;;
6374;SDS011;35400;45.472;-122.822;2024-01-15T12:37:54;1.57;;;1.10;;
6374;SDS011;35400;45.472;-122.822;2024-01-15T12:40:21;1.53;;;1.43;;
6374;SDS011;35400;45.472;-122.822;2024-01-15T12:42:49;1.73;;;1.10;;
6374;SDS011;35400;45.472;-122.822;2024-01-15T12:45:16;2.13;;;1.37;;
6374;SDS011;35400;45.472;-122.822;2024-01-15T12:47:44;2.40;;;1.50;;
6374;SDS011;35400;45.472;-122.822;2024-01-15T12:50:12;2.17;;;1.53;;
6374;SDS011;35400;45.472;-122.822;2024-01-15T12:52:40;2.37;;;1.63;;
6374;SDS011;35400;45.472;-122.822;2024-01-15T12:55:07;1.77;;;1.50;;
6374;SDS011;35400;45.472;-122.822;2024-01-15T12:57:35;2.03;;;1.40;;
6374;SDS011;35400;45.472;-122.822;2024-01-15T13:00:03;1.80;;;1.30;;
6374;SDS011;35400;45.472;-122.822;2024-01-15T13:02:40;1.53;;;1.40;;
6374;SDS011;35400;45.472;-122.822;2024-01-15T13:05:08;1.80;;;1.40;;
6374;SDS011;35400;45.472;-122.822;2024-01-15T13:07:37;3.50;;;1.50;;
6374;SDS011;35400;45.472;-122.822;2024-01-15T13:10:04;3.00;;;1.33;;
6374;SDS011;35400;45.472;-122.822;2024-01-15T13:12:32;1.57;;;1.20;;
6374;SDS011;35400;45.472;-122.822;2024-01-15T13:15:00;1.47;;;1.23;;
6374;SDS011;35400;45.472;-122.822;2024-01-15T13:17:29;1.60;;;1.20;;
6374;SDS011;35400;45.472;-122.822;2024-01-15T13:19:56;1.40;;;1.17;;
6374;SDS011;35400;45.472;-122.822;2024-01-15T13:22:23;3.43;;;1.43;;
6374;SDS011;35400;45.472;-122.822;2024-01-15T13:24:55;3.80;;;1.37;;
6374;SDS011;35400;45.472;-122.822;2024-01-15T13:27:22;1.20;;;1.10;;
6374;SDS011;35400;45.472;-122.822;2024-01-15T13:29:50;1.30;;;1.20;;
6374;SDS011;35400;45.472;-122.822;2024-01-15T13:32:28;1.77;;;1.60;;
6374;SDS011;35400;45.472;-122.822;2024-01-15T13:34:55;1.53;;;1.30;;
6374;SDS011;35400;45.472;-122.822;2024-01-15T13:37:22;2.23;;;1.40;;
6374;SDS011;35400;45.472;-122.822;2024-01-15T13:39:53;1.50;;;1.40;;
6374;SDS011;35400;45.472;-122.822;2024-01-15T13:42:19;1.40;;;1.30;;
6374;SDS011;35400;45.472;-122.822;2024-01-15T13:44:49;2.03;;;1.50;;
6374;SDS011;35400;45.472;-122.822;2024-01-15T13:47:17;1.57;;;1.10;;
6374;SDS011;35400;45.472;-122.822;2024-01-15T13:49:44;2.27;;;1.30;;
6374;SDS011;35400;45.472;-122.822;2024-01-15T13:52:11;1.83;;;1.30;;
6374;SDS011;35400;45.472;-122.822;2024-01-15T13:54:38;2.07;;;1.67;;
6374;SDS011;35400;45.472;-122.822;2024-01-15T13:57:05;1.87;;;1.47;;
6374;SDS011;35400;45.472;-122.822;2024-01-15T13:59:32;3.67;;;1.20;;
6374;SDS011;35400;45.472;-122.822;2024-01-15T14:01:59;1.33;;;1.20;;
6374;SDS011;35400;45.472;-122.822;2024-01-15T14:04:26;1.63;;;1.30;;
6374;SDS011;35400;45.472;-122.822;2024-01-15T14:06:53;1.63;;;1.53;;
6374;SDS011;35400;45.472;-122.822;2024-01-15T14:09:20;1.50;;;1.37;;
6374;SDS011;35400;45.472;-122.822;2024-01-15T14:11:47;2.00;;;1.60;;
6374;SDS011;35400;45.472;-122.822;2024-01-15T14:14:14;1.47;;;1.23;;
6374;SDS011;35400;45.472;-122.822;2024-01-15T14:16:42;3.03;;;1.30;;
6374;SDS011;35400;45.472;-122.822;2024-01-15T14:19:09;1.40;;;1.30;;
6374;SDS011;35400;45.472;-122.822;2024-01-15T14:21:36;1.87;;;1.43;;
6374;SDS011;35400;45.472;-122.822;2024-01-15T14:24:04;1.80;;;1.43;;
6374;SDS011;35400;45.472;-122.822;2024-01-15T14:26:31;4.23;;;1.57;;
6374;SDS011;35400;45.472;-122.822;2024-01-15T14:28:58;1.43;;;1.10;;
6374;SDS011;35400;45.472;-122.822;2024-01-15T14:31:25;1.47;;;1.13;;